sensor_id;sensor_type;location;lat;lon;timestamp;P1;durP1;ratioP1;P2;durP2;ratioP2
40515;SDS011;26216;53.724;9.898;2023-11-22T00:01:37;1.73;;;1.20;;
40515;SDS011;26216;53.724;9.898;2023-11-22T00:04:02;2.90;;;1.20;;
40515;SDS011;26216;53.724;9.898;2023-11-22T00:06:29;1.67;;;1.13;;
40515;SDS011;26216;53.724;9.898;2023-11-22T00:08:55;1.60;;;1.00;;
40515;SDS011;26216;53.724;9.898;2023-11-22T00:11:21;2.13;;;1.13;;
40515;SDS011;26216;53.724;9.898;2023-11-22T00:13:47;1.50;;;0.88;;
40515;SDS011;26216;53.724;9.898;2023-11-22T00:16:14;1.80;;;0.98;;
40515;SDS011;26216;53.724;9.898;2023-11-22T00:18:41;2.15;;;1.13;;
40515;SDS011;26216;53.724;9.898;2023-11-22T00:21:07;1.73;;;0.90;;
40515;SDS011;26216;53.724;9.898;2023-11-22T00:23:32;1.58;;;1.02;;
40515;SDS011;26216;53.724;9.898;2023-11-22T00:25:58;2.25;;;1.30;;
40515;SDS011;26216;53.724;9.898;2023-11-22T00:28:24;1.38;;;1.00;;
40515;SDS011;26216;53.724;9.898;2023-11-22T00:30:50;1.65;;;1.13;;
40515;SDS011;26216;53.724;9.898;2023-11-22T00:33:15;1.98;;;1.30;;
40515;SDS011;26216;53.724;9.898;2023-11-22T00:35:43;1.05;;;0.80;;
40515;SDS011;26216;53.724;9.898;2023-11-22T00:38:09;1.95;;;1.13;;
40515;SDS011;26216;53.724;9.898;2023-11-22T00:40:34;2.28;;;1.08;;
40515;SDS011;26216;53.724;9.898;2023-11-22T00:43:00;2.05;;;1.10;;
40515;SDS011;26216;53.724;9.898;2023-11-22T00:45:26;2.83;;;0.90;;
40515;SDS011;26216;53.724;9.898;2023-11-22T00:47:52;1.50;;;0.90;;
40515;SDS011;26216;53.724;9.898;2023-11-22T00:50:17;1.58;;;0.98;;
40515;SDS011;26216;53.724;9.898;2023-11-22T00:52:46;1.52;;;1.00;;
40515;SDS011;26216;53.724;9.898;2023-11-22T00:55:13;1.98;;;0.98;;
40515;SDS011;26216;53.724;9.898;2023-11-22T00:57:39;2.50;;;1.20;;
40515;SDS011;26216;53.724;9.898;2023-11-22T01:00:05;2.05;;;1.10;;
40515;SDS011;26216;53.724;9.898;2023-11-22T01:02:35;1.98;;;0.98;;
40515;SDS011;26216;53.724;9.898;2023-11-22T01:05:05;1.67;;;1.00;;
40515;SDS011;26216;53.724;9.898;2023-11-22T01:07:35;1.58;;;1.10;;
40515;SDS011;26216;53.724;9.898;2023-11-22T01:10:00;2.15;;;1.20;;
40515;SDS011;26216;53.724;9.898;2023-11-22T01:12:26;3.75;;;1.25;;
40515;SDS011;26216;53.724;9.898;2023-11-22T01:14:52;1.95;;;1.25;;
40515;SDS011;26216;53.724;9.898;2023-11-22T01:17:18;2.67;;;1.23;;
40515;SDS011;26216;53.724;9.898;2023-11-22T01:19:44;3.58;;;1.55;;
40515;SDS011;26216;53.724;9.898;2023-11-22T01:22:09;2.55;;;1.50;;
40515;SDS011;26216;53.724;9.898;2023-11-22T01:24:35;2.33;;;1.30;;
40515;SDS011;26216;53.724;9.898;2023-11-22T01:27:02;1.65;;;1.10;;
40515;SDS011;26216;53.724;9.898;2023-11-22T01:29:28;2.45;;;1.30;;
40515;SDS011;26216;53.724;9.898;2023-11-22T01:31:54;2.83;;;1.60;;
40515;SDS011;26216;53.724;9.898;2023-11-22T01:34:20;2.03;;;1.30;;
40515;SDS011;26216;53.724;9.898;2023-11-22T01:36:48;2.20;;;1.45;;
40515;SDS011;26216;53.724;9.898;2023-11-22T01:39:15;2.47;;;1.63;;
40515;SDS011;26216;53.724;9.898;2023-11-22T01:41:41;2.85;;;1.20;;
40515;SDS011;26216;53.724;9.898;2023-11-22T01:44:09;2.00;;;1.20;;
40515;SDS011;26216;53.724;9.898;2023-11-22T01:46:35;2.28;;;1.15;;
40515;SDS011;26216;53.724;9.898;2023-11-22T01:49:01;1.42;;;0.93;;
40515;SDS011;26216;53.724;9.898;2023-11-22T01:51:27;1.42;;;1.00;;
40515;SDS011;26216;53.724;9.898;2023-11-22T01:54:08;2.28;;;1.23;;
40515;SDS011;26216;53.724;9.898;2023-11-22T01:56:46;1.73;;;1.30;;
40515;SDS011;26216;53.724;9.898;2023-11-22T01:59:13;1.83;;;1.10;;
40515;SDS011;26216;53.724;9.898;2023-11-22T02:01:39;2.10;;;1.35;;
40515;SDS011;26216;53.724;9.898;2023-11-22T02:04:05;2.53;;;1.42;;
40515;SDS011;26216;53.724;9.898;2023-11-22T02:06:31;1.90;;;1.20;;
40515;SDS011;26216;53.724;9.898;2023-11-22T02:08:58;1.55;;;1.00;;
40515;SDS011;26216;53.724;9.898;2023-11-22T02:11:24;1.77;;;1.13;;
40515;SDS011;26216;53.724;9.898;2023-11-22T02:13:52;2.35;;;1.40;;
40515;SDS011;26216;53.724;9.898;2023-11-22T02:16:18;2.60;;;1.48;;
40515;SDS011;26216;53.724;9.898;2023-11-22T02:18:45;2.83;;;1.60;;
40515;SDS011;26216;53.724;9.898;2023-11-22T02:21:12;1.90;;;1.30;;
40515;SDS011;26216;53.724;9.898;2023-11-22T02:23:38;2.70;;;1.67;;
40515;SDS011;26216;53.724;9.898;2023-11-22T02:26:04;2.42;;;1.63;;
40515;SDS011;26216;53.724;9.898;2023-11-22T02:28:29;2.35;;;1.40;;
40515;SDS011;26216;53.724;9.898;2023-11-22T02:30:55;2.72;;;1.70;;
40515;SDS011;26216;53.724;9.898;2023-11-22T02:33:21;2.05;;;1.20;;
40515;SDS011;26216;53.724;9.898;2023-11-22T02:35:47;2.13;;;1.20;;
40515;SDS011;26216;53.724;9.898;2023-11-22T02:38:12;1.98;;;1.30;;
40515;SDS011;26216;53.724;9.898;2023-11-22T02:40:39;2.67;;;1.65;;
40515;SDS011;26216;53.724;9.898;2023-11-22T02:43:04;2.47;;;1.48;;
40515;SDS011;26216;53.724;9.898;2023-11-22T02:45:34;2.08;;;1.27;;
40515;SDS011;26216;53.724;9.898;2023-11-22T02:48:00;2.75;;;1.58;;
40515;SDS011;26216;53.724;9.898;2023-11-22T02:50:29;2.22;;;1.27;;
40515;SDS011;26216;53.724;9.898;2023-11-22T02:52:59;2.90;;;1.50;;
40515;SDS011;26216;53.724;9.898;2023-11-22T02:55:25;2.63;;;1.60;;
40515;SDS011;26216;53.724;9.898;2023-11-22T02:57:51;1.77;;;1.17;;
40515;SDS011;26216;53.724;9.898;2023-11-22T03:00:16;2.17;;;1.50;;
40515;SDS011;26216;53.724;9.898;2023-11-22T03:02:44;2.95;;;1.70;;
40515;SDS011;26216;53.724;9.898;2023-11-22T03:05:11;1.80;;;1.20;;
40515;SDS011;26216;53.724;9.898;2023-11-22T03:07:39;2.30;;;1.50;;
40515;SDS011;26216;53.724;9.898;2023-11-22T03:10:06;2.72;;;1.70;;
40515;SDS011;26216;53.724;9.898;2023-11-22T03:12:32;2.30;;;1.40;;
40515;SDS011;26216;53.724;9.898;2023-11-22T03:14:59;2.03;;;1.40;;
40515;SDS011;26216;53.724;9.898;2023-11-22T03:17:30;2.97;;;1.40;;
40515;SDS011;26216;53.724;9.898;2023-11-22T03:19:56;2.58;;;1.55;;
40515;SDS011;26216;53.724;9.898;2023-11-22T03:22:23;2.65;;;1.20;;
40515;SDS011;26216;53.724;9.898;2023-11-22T03:24:49;2.15;;;1.30;;
40515;SDS011;26216;53.724;9.898;2023-11-22T03:27:15;2.67;;;1.45;;
40515;SDS011;26216;53.724;9.898;2023-11-22T03:29:41;4.60;;;1.70;;
40515;SDS011;26216;53.724;9.898;2023-11-22T03:32:07;1.85;;;1.20;;
40515;SDS011;26216;53.724;9.898;2023-11-22T03:34:33;2.53;;;1.42;;
40515;SDS011;26216;53.724;9.898;2023-11-22T03:36:59;2.63;;;1.70;;
40515;SDS011;26216;53.724;9.898;2023-11-22T03:39:24;2.40;;;1.55;;
40515;SDS011;26216;53.724;9.898;2023-11-22T03:41:50;3.00;;;1.63;;
40515;SDS011;26216;53.724;9.898;2023-11-22T03:44:16;2.17;;;1.33;;
40515;SDS011;26216;53.724;9.898;2023-11-22T03:46:42;2.75;;;1.50;;
40515;SDS011;26216;53.724;9.898;2023-11-22T03:49:08;2.53;;;1.60;;
40515;SDS011;26216;53.724;9.898;2023-11-22T03:51:34;2.20;;;1.50;;
40515;SDS011;26216;53.724;9.898;2023-11-22T03:54:01;2.88;;;1.60;;
40515;SDS011;26216;53.724;9.898;2023-11-22T03:56:30;2.92;;;1.70;;
40515;SDS011;26216;53.724;9.898;2023-11-22T03:58:56;2.95;;;1.48;;
40515;SDS011;26216;53.724;9.898;2023-11-22T04:01:22;2.90;;;1.45;;
40515;SDS011;26216;53.724;9.898;2023-11-22T04:03:48;2.40;;;1.58;;
40515;SDS011;26216;53.724;9.898;2023-11-22T04:06:14;2.22;;;1.40;;
40515;SDS011;26216;53.724;9.898;2023-11-22T04:08:44;2.05;;;1.20;;
40515;SDS011;26216;53.724;9.898;2023-11-22T04:11:11;1.42;;;1.00;;
40515;SDS011;26216;53.724;9.898;2023-11-22T04:13:37;2.10;;;1.45;;
40515;SDS011;26216;53.724;9.898;2023-11-22T04:16:04;2.67;;;1.50;;
40515;SDS011;26216;53.724;9.898;2023-11-22T04:18:34;1.90;;;1.23;;
40515;SDS011;26216;53.724;9.898;2023-11-22T04:21:03;2.53;;;1.70;;
40515;SDS011;26216;53.724;9.898;2023-11-22T04:23:30;2.58;;;1.63;;
40515;SDS011;26216;53.724;9.898;2023-11-22T04:25:57;4.53;;;2.15;;
40515;SDS011;26216;53.724;9.898;2023-11-22T04:28:24;2.63;;;1.70;;
40515;SDS011;26216;53.724;9.898;2023-11-22T04:30:50;2.80;;;1.70;;
40515;SDS011;26216;53.724;9.898;2023-11-22T04:33:17;3.28;;;1.50;;
40515;SDS011;26216;53.724;9.898;2023-11-22T04:35:43;2.20;;;1.52;;
40515;SDS011;26216;53.724;9.898;2023-11-22T04:38:09;2.45;;;1.58;;
40515;SDS011;26216;53.724;9.898;2023-11-22T04:40:35;2.30;;;1.60;;
40515;SDS011;26216;53.724;9.898;2023-11-22T04:43:00;1.92;;;1.30;;
40515;SDS011;26216;53.724;9.898;2023-11-22T04:45:27;2.40;;;1.40;;
40515;SDS011;26216;53.724;9.898;2023-11-22T04:47:52;2.65;;;1.60;;
40515;SDS011;26216;53.724;9.898;2023-11-22T04:50:19;1.92;;;1.30;;
40515;SDS011;26216;53.724;9.898;2023-11-22T04:52:44;3.03;;;1.50;;
40515;SDS011;26216;53.724;9.898;2023-11-22T04:55:10;3.70;;;1.92;;
40515;SDS011;26216;53.724;9.898;2023-11-22T04:57:36;2.50;;;1.90;;
40515;SDS011;26216;53.724;9.898;2023-11-22T05:00:02;2.08;;;1.60;;
40515;SDS011;26216;53.724;9.898;2023-11-22T05:02:30;2.38;;;1.58;;
40515;SDS011;26216;53.724;9.898;2023-11-22T05:04:56;2.42;;;1.60;;
40515;SDS011;26216;53.724;9.898;2023-11-22T05:07:22;2.30;;;1.50;;
40515;SDS011;26216;53.724;9.898;2023-11-22T05:09:47;3.10;;;1.70;;
40515;SDS011;26216;53.724;9.898;2023-11-22T05:12:13;2.22;;;1.52;;
40515;SDS011;26216;53.724;9.898;2023-11-22T05:14:41;2.92;;;1.75;;
40515;SDS011;26216;53.724;9.898;2023-11-22T05:17:08;3.35;;;1.67;;
40515;SDS011;26216;53.724;9.898;2023-11-22T05:19:34;3.22;;;1.70;;
40515;SDS011;26216;53.724;9.898;2023-11-22T05:22:00;2.50;;;1.65;;
40515;SDS011;26216;53.724;9.898;2023-11-22T05:24:26;2.33;;;1.45;;
40515;SDS011;26216;53.724;9.898;2023-11-22T05:26:52;2.70;;;1.33;;
40515;SDS011;26216;53.724;9.898;2023-11-22T05:29:17;2.78;;;1.65;;
40515;SDS011;26216;53.724;9.898;2023-11-22T05:31:44;2.72;;;1.60;;
40515;SDS011;26216;53.724;9.898;2023-11-22T05:34:10;2.42;;;1.67;;
40515;SDS011;26216;53.724;9.898;2023-11-22T05:36:36;3.28;;;1.55;;
40515;SDS011;26216;53.724;9.898;2023-11-22T05:39:01;2.47;;;1.55;;
40515;SDS011;26216;53.724;9.898;2023-11-22T05:41:29;2.83;;;1.90;;
40515;SDS011;26216;53.724;9.898;2023-11-22T05:43:54;2.20;;;1.45;;
40515;SDS011;26216;53.724;9.898;2023-11-22T05:46:21;2.78;;;1.65;;
40515;SDS011;26216;53.724;9.898;2023-11-22T05:48:53;2.33;;;1.65;;
40515;SDS011;26216;53.724;9.898;2023-11-22T05:51:20;3.90;;;1.80;;
40515;SDS011;26216;53.724;9.898;2023-11-22T05:53:46;2.42;;;1.50;;
40515;SDS011;26216;53.724;9.898;2023-11-22T05:56:12;2.42;;;1.50;;
40515;SDS011;26216;53.724;9.898;2023-11-22T05:58:38;3.08;;;2.00;;
40515;SDS011;26216;53.724;9.898;2023-11-22T06:01:05;2.55;;;1.60;;
40515;SDS011;26216;53.724;9.898;2023-11-22T06:03:31;2.58;;;1.60;;
40515;SDS011;26216;53.724;9.898;2023-11-22T06:05:57;2.88;;;1.70;;
40515;SDS011;26216;53.724;9.898;2023-11-22T06:08:23;3.13;;;2.00;;
40515;SDS011;26216;53.724;9.898;2023-11-22T06:10:49;2.45;;;1.70;;
40515;SDS011;26216;53.724;9.898;2023-11-22T06:13:16;4.13;;;2.05;;
40515;SDS011;26216;53.724;9.898;2023-11-22T06:15:43;2.70;;;1.83;;
40515;SDS011;26216;53.724;9.898;2023-11-22T06:18:09;3.17;;;1.90;;
40515;SDS011;26216;53.724;9.898;2023-11-22T06:20:34;2.88;;;1.80;;
40515;SDS011;26216;53.724;9.898;2023-11-22T06:23:00;2.85;;;1.75;;
40515;SDS011;26216;53.724;9.898;2023-11-22T06:25:26;3.17;;;1.50;;
40515;SDS011;26216;53.724;9.898;2023-11-22T06:27:52;2.55;;;1.45;;
40515;SDS011;26216;53.724;9.898;2023-11-22T06:30:18;3.10;;;1.77;;
40515;SDS011;26216;53.724;9.898;2023-11-22T06:32:44;2.15;;;1.50;;
40515;SDS011;26216;53.724;9.898;2023-11-22T06:35:10;2.38;;;1.58;;
40515;SDS011;26216;53.724;9.898;2023-11-22T06:37:40;2.88;;;2.00;;
40515;SDS011;26216;53.724;9.898;2023-11-22T06:40:06;3.53;;;1.60;;
40515;SDS011;26216;53.724;9.898;2023-11-22T06:42:35;2.25;;;1.45;;
40515;SDS011;26216;53.724;9.898;2023-11-22T06:45:01;3.10;;;1.70;;
40515;SDS011;26216;53.724;9.898;2023-11-22T06:47:27;2.95;;;1.80;;
40515;SDS011;26216;53.724;9.898;2023-11-22T06:49:53;2.80;;;1.50;;
40515;SDS011;26216;53.724;9.898;2023-11-22T06:52:19;2.88;;;1.80;;
40515;SDS011;26216;53.724;9.898;2023-11-22T06:54:44;2.50;;;1.40;;
40515;SDS011;26216;53.724;9.898;2023-11-22T06:57:10;2.78;;;1.70;;
40515;SDS011;26216;53.724;9.898;2023-11-22T06:59:36;2.35;;;1.45;;
40515;SDS011;26216;53.724;9.898;2023-11-22T07:02:02;3.40;;;1.70;;
40515;SDS011;26216;53.724;9.898;2023-11-22T07:04:28;2.47;;;1.50;;
40515;SDS011;26216;53.724;9.898;2023-11-22T07:06:54;3.85;;;2.33;;
40515;SDS011;26216;53.724;9.898;2023-11-22T07:09:20;3.22;;;1.75;;
40515;SDS011;26216;53.724;9.898;2023-11-22T07:11:45;3.00;;;2.15;;
40515;SDS011;26216;53.724;9.898;2023-11-22T07:14:11;3.40;;;2.42;;
40515;SDS011;26216;53.724;9.898;2023-11-22T07:16:37;3.53;;;2.35;;
40515;SDS011;26216;53.724;9.898;2023-11-22T07:19:03;3.97;;;2.28;;
40515;SDS011;26216;53.724;9.898;2023-11-22T07:21:29;4.20;;;2.35;;
40515;SDS011;26216;53.724;9.898;2023-11-22T07:23:57;3.60;;;2.10;;
40515;SDS011;26216;53.724;9.898;2023-11-22T07:26:26;3.13;;;1.90;;
40515;SDS011;26216;53.724;9.898;2023-11-22T07:28:52;2.65;;;1.88;;
40515;SDS011;26216;53.724;9.898;2023-11-22T07:31:18;3.42;;;2.28;;
40515;SDS011;26216;53.724;9.898;2023-11-22T07:33:44;3.58;;;2.28;;
40515;SDS011;26216;53.724;9.898;2023-11-22T07:36:11;3.97;;;2.38;;
40515;SDS011;26216;53.724;9.898;2023-11-22T07:38:41;3.60;;;2.13;;
40515;SDS011;26216;53.724;9.898;2023-11-22T07:41:08;2.97;;;2.10;;
40515;SDS011;26216;53.724;9.898;2023-11-22T07:43:34;2.85;;;1.90;;
40515;SDS011;26216;53.724;9.898;2023-11-22T07:46:04;3.25;;;2.10;;
40515;SDS011;26216;53.724;9.898;2023-11-22T07:48:38;2.85;;;1.80;;
40515;SDS011;26216;53.724;9.898;2023-11-22T07:51:06;3.97;;;2.33;;
40515;SDS011;26216;53.724;9.898;2023-11-22T07:53:32;4.70;;;2.20;;
40515;SDS011;26216;53.724;9.898;2023-11-22T07:56:02;2.70;;;1.83;;
40515;SDS011;26216;53.724;9.898;2023-11-22T08:00:57;4.72;;;1.92;;
40515;SDS011;26216;53.724;9.898;2023-11-22T08:03:24;2.35;;;1.60;;
40515;SDS011;26216;53.724;9.898;2023-11-22T08:05:53;3.47;;;2.05;;
40515;SDS011;26216;53.724;9.898;2023-11-22T08:08:20;4.13;;;2.35;;
40515;SDS011;26216;53.724;9.898;2023-11-22T08:10:46;3.47;;;2.13;;
40515;SDS011;26216;53.724;9.898;2023-11-22T08:13:14;3.63;;;2.40;;
40515;SDS011;26216;53.724;9.898;2023-11-22T08:15:41;3.92;;;2.38;;
40515;SDS011;26216;53.724;9.898;2023-11-22T08:18:07;4.05;;;2.45;;
40515;SDS011;26216;53.724;9.898;2023-11-22T08:20:33;3.70;;;2.30;;
40515;SDS011;26216;53.724;9.898;2023-11-22T08:22:58;3.78;;;2.40;;
40515;SDS011;26216;53.724;9.898;2023-11-22T08:25:25;3.25;;;2.08;;
40515;SDS011;26216;53.724;9.898;2023-11-22T08:27:51;3.20;;;2.13;;
40515;SDS011;26216;53.724;9.898;2023-11-22T08:30:18;4.10;;;2.30;;
40515;SDS011;26216;53.724;9.898;2023-11-22T08:32:45;5.03;;;2.60;;
40515;SDS011;26216;53.724;9.898;2023-11-22T08:35:19;4.25;;;2.75;;
40515;SDS011;26216;53.724;9.898;2023-11-22T08:37:48;3.67;;;2.38;;
40515;SDS011;26216;53.724;9.898;2023-11-22T08:40:15;3.67;;;2.60;;
40515;SDS011;26216;53.724;9.898;2023-11-22T08:42:47;4.97;;;2.80;;
40515;SDS011;26216;53.724;9.898;2023-11-22T08:45:13;3.63;;;2.35;;
40515;SDS011;26216;53.724;9.898;2023-11-22T08:47:39;3.78;;;2.55;;
40515;SDS011;26216;53.724;9.898;2023-11-22T08:50:06;2.80;;;2.08;;
40515;SDS011;26216;53.724;9.898;2023-11-22T08:52:33;3.58;;;2.35;;
40515;SDS011;26216;53.724;9.898;2023-11-22T08:55:01;4.00;;;2.40;;
40515;SDS011;26216;53.724;9.898;2023-11-22T08:57:27;3.25;;;2.47;;
40515;SDS011;26216;53.724;9.898;2023-11-22T08:59:53;3.55;;;2.40;;
40515;SDS011;26216;53.724;9.898;2023-11-22T09:02:19;3.13;;;2.17;;
40515;SDS011;26216;53.724;9.898;2023-11-22T09:04:47;4.55;;;2.30;;
40515;SDS011;26216;53.724;9.898;2023-11-22T09:07:13;3.28;;;2.28;;
40515;SDS011;26216;53.724;9.898;2023-11-22T09:09:43;3.78;;;2.72;;
40515;SDS011;26216;53.724;9.898;2023-11-22T09:12:09;4.65;;;2.88;;
40515;SDS011;26216;53.724;9.898;2023-11-22T09:14:40;3.88;;;2.63;;
40515;SDS011;26216;53.724;9.898;2023-11-22T09:17:07;3.67;;;2.50;;
40515;SDS011;26216;53.724;9.898;2023-11-22T09:19:39;3.30;;;2.20;;
40515;SDS011;26216;53.724;9.898;2023-11-22T09:22:15;3.30;;;2.30;;
40515;SDS011;26216;53.724;9.898;2023-11-22T09:24:41;3.65;;;2.28;;
40515;SDS011;26216;53.724;9.898;2023-11-22T09:27:07;4.82;;;2.33;;
40515;SDS011;26216;53.724;9.898;2023-11-22T09:29:35;4.28;;;2.70;;
40515;SDS011;26216;53.724;9.898;2023-11-22T09:32:02;4.90;;;2.90;;
40515;SDS011;26216;53.724;9.898;2023-11-22T09:34:28;4.05;;;2.83;;
40515;SDS011;26216;53.724;9.898;2023-11-22T09:36:54;4.22;;;2.50;;
40515;SDS011;26216;53.724;9.898;2023-11-22T09:39:22;5.40;;;2.70;;
40515;SDS011;26216;53.724;9.898;2023-11-22T09:41:50;3.95;;;2.80;;
40515;SDS011;26216;53.724;9.898;2023-11-22T09:44:17;5.43;;;3.10;;
40515;SDS011;26216;53.724;9.898;2023-11-22T09:46:43;4.38;;;3.13;;
40515;SDS011;26216;53.724;9.898;2023-11-22T09:49:10;5.97;;;3.30;;
40515;SDS011;26216;53.724;9.898;2023-11-22T09:51:43;4.45;;;3.42;;
40515;SDS011;26216;53.724;9.898;2023-11-22T09:54:11;4.35;;;3.25;;
40515;SDS011;26216;53.724;9.898;2023-11-22T09:56:39;5.65;;;3.55;;
40515;SDS011;26216;53.724;9.898;2023-11-22T09:59:06;5.28;;;3.05;;
40515;SDS011;26216;53.724;9.898;2023-11-22T10:01:33;5.60;;;3.30;;
40515;SDS011;26216;53.724;9.898;2023-11-22T10:04:04;4.32;;;2.95;;
40515;SDS011;26216;53.724;9.898;2023-11-22T10:06:33;6.22;;;3.45;;
40515;SDS011;26216;53.724;9.898;2023-11-22T10:09:03;7.72;;;3.50;;
40515;SDS011;26216;53.724;9.898;2023-11-22T10:11:33;4.93;;;3.45;;
40515;SDS011;26216;53.724;9.898;2023-11-22T10:14:04;5.75;;;3.33;;
40515;SDS011;26216;53.724;9.898;2023-11-22T10:16:30;5.30;;;3.50;;
40515;SDS011;26216;53.724;9.898;2023-11-22T10:18:55;5.82;;;3.67;;
40515;SDS011;26216;53.724;9.898;2023-11-22T10:21:24;4.93;;;3.13;;
40515;SDS011;26216;53.724;9.898;2023-11-22T10:24:01;5.20;;;3.50;;
40515;SDS011;26216;53.724;9.898;2023-11-22T10:26:28;4.70;;;3.40;;
40515;SDS011;26216;53.724;9.898;2023-11-22T10:28:54;5.38;;;3.53;;
40515;SDS011;26216;53.724;9.898;2023-11-22T10:31:22;5.45;;;3.80;;
40515;SDS011;26216;53.724;9.898;2023-11-22T10:33:49;5.70;;;3.45;;
40515;SDS011;26216;53.724;9.898;2023-11-22T10:36:15;6.03;;;4.13;;
40515;SDS011;26216;53.724;9.898;2023-11-22T10:38:46;4.53;;;3.25;;
40515;SDS011;26216;53.724;9.898;2023-11-22T10:41:12;4.55;;;3.55;;
40515;SDS011;26216;53.724;9.898;2023-11-22T10:43:41;5.72;;;4.07;;
40515;SDS011;26216;53.724;9.898;2023-11-22T10:46:09;4.60;;;3.63;;
40515;SDS011;26216;53.724;9.898;2023-11-22T10:48:37;5.47;;;3.42;;
40515;SDS011;26216;53.724;9.898;2023-11-22T10:51:04;5.68;;;3.60;;
40515;SDS011;26216;53.724;9.898;2023-11-22T10:53:32;6.07;;;3.38;;
40515;SDS011;26216;53.724;9.898;2023-11-22T10:56:12;4.72;;;3.22;;
40515;SDS011;26216;53.724;9.898;2023-11-22T10:58:47;5.35;;;3.58;;
40515;SDS011;26216;53.724;9.898;2023-11-22T11:01:17;5.82;;;3.53;;
40515;SDS011;26216;53.724;9.898;2023-11-22T11:03:52;4.50;;;3.42;;
40515;SDS011;26216;53.724;9.898;2023-11-22T11:06:24;4.30;;;2.97;;
40515;SDS011;26216;53.724;9.898;2023-11-22T11:08:59;4.90;;;3.45;;
40515;SDS011;26216;53.724;9.898;2023-11-22T11:11:30;4.47;;;2.95;;
40515;SDS011;26216;53.724;9.898;2023-11-22T11:14:02;4.95;;;3.40;;
40515;SDS011;26216;53.724;9.898;2023-11-22T11:16:30;4.53;;;3.28;;
40515;SDS011;26216;53.724;9.898;2023-11-22T11:18:59;4.50;;;2.90;;
40515;SDS011;26216;53.724;9.898;2023-11-22T11:21:26;5.75;;;2.78;;
40515;SDS011;26216;53.724;9.898;2023-11-22T11:23:53;3.75;;;2.50;;
40515;SDS011;26216;53.724;9.898;2023-11-22T11:26:23;4.18;;;2.83;;
40515;SDS011;26216;53.724;9.898;2023-11-22T11:28:51;4.07;;;2.35;;
40515;SDS011;26216;53.724;9.898;2023-11-22T11:31:20;3.17;;;2.28;;
40515;SDS011;26216;53.724;9.898;2023-11-22T11:36:29;3.00;;;2.03;;
40515;SDS011;26216;53.724;9.898;2023-11-22T11:39:00;3.10;;;2.00;;
40515;SDS011;26216;53.724;9.898;2023-11-22T11:41:29;3.00;;;1.50;;
40515;SDS011;26216;53.724;9.898;2023-11-22T11:43:59;3.17;;;1.65;;
40515;SDS011;26216;53.724;9.898;2023-11-22T11:46:28;2.80;;;1.50;;
40515;SDS011;26216;53.724;9.898;2023-11-22T11:48:55;2.88;;;1.63;;
40515;SDS011;26216;53.724;9.898;2023-11-22T11:51:25;2.92;;;1.48;;
40515;SDS011;26216;53.724;9.898;2023-11-22T11:53:52;3.28;;;1.75;;
40515;SDS011;26216;53.724;9.898;2023-11-22T11:56:19;2.90;;;1.85;;
40515;SDS011;26216;53.724;9.898;2023-11-22T11:58:46;2.97;;;1.65;;
40515;SDS011;26216;53.724;9.898;2023-11-22T12:01:15;2.35;;;1.60;;
40515;SDS011;26216;53.724;9.898;2023-11-22T12:03:42;2.83;;;1.70;;
40515;SDS011;26216;53.724;9.898;2023-11-22T12:06:09;1.90;;;1.30;;
40515;SDS011;26216;53.724;9.898;2023-11-22T12:08:35;4.78;;;1.38;;
40515;SDS011;26216;53.724;9.898;2023-11-22T12:11:03;2.97;;;1.35;;
40515;SDS011;26216;53.724;9.898;2023-11-22T12:13:32;2.60;;;1.50;;
40515;SDS011;26216;53.724;9.898;2023-11-22T12:15:58;1.75;;;1.27;;
40515;SDS011;26216;53.724;9.898;2023-11-22T12:18:25;1.83;;;1.20;;
40515;SDS011;26216;53.724;9.898;2023-11-22T12:20:55;2.40;;;1.30;;
40515;SDS011;26216;53.724;9.898;2023-11-22T12:23:22;2.58;;;1.38;;
40515;SDS011;26216;53.724;9.898;2023-11-22T12:25:56;2.28;;;1.38;;
40515;SDS011;26216;53.724;9.898;2023-11-22T12:28:23;2.63;;;1.48;;
40515;SDS011;26216;53.724;9.898;2023-11-22T12:30:51;1.90;;;1.30;;
40515;SDS011;26216;53.724;9.898;2023-11-22T12:33:17;2.38;;;1.35;;
40515;SDS011;26216;53.724;9.898;2023-11-22T12:35:45;3.63;;;1.50;;
40515;SDS011;26216;53.724;9.898;2023-11-22T12:38:11;1.77;;;1.02;;
40515;SDS011;26216;53.724;9.898;2023-11-22T12:40:37;1.27;;;0.90;;
40515;SDS011;26216;53.724;9.898;2023-11-22T12:43:08;2.17;;;1.35;;
40515;SDS011;26216;53.724;9.898;2023-11-22T12:45:39;2.80;;;1.20;;
40515;SDS011;26216;53.724;9.898;2023-11-22T12:48:21;1.83;;;1.17;;
40515;SDS011;26216;53.724;9.898;2023-11-22T12:50:51;2.60;;;1.10;;
40515;SDS011;26216;53.724;9.898;2023-11-22T12:53:19;1.73;;;1.13;;
40515;SDS011;26216;53.724;9.898;2023-11-22T12:55:48;2.22;;;1.33;;
40515;SDS011;26216;53.724;9.898;2023-11-22T12:58:15;2.80;;;1.30;;
40515;SDS011;26216;53.724;9.898;2023-11-22T13:00:43;1.25;;;1.00;;
40515;SDS011;26216;53.724;9.898;2023-11-22T13:03:10;2.92;;;1.45;;
40515;SDS011;26216;53.724;9.898;2023-11-22T13:05:40;2.75;;;1.20;;
40515;SDS011;26216;53.724;9.898;2023-11-22T13:08:12;2.10;;;1.15;;
40515;SDS011;26216;53.724;9.898;2023-11-22T13:10:40;2.28;;;1.45;;
40515;SDS011;26216;53.724;9.898;2023-11-22T13:13:09;2.10;;;1.17;;
40515;SDS011;26216;53.724;9.898;2023-11-22T13:15:35;1.85;;;1.23;;
40515;SDS011;26216;53.724;9.898;2023-11-22T13:18:01;2.10;;;1.10;;
40515;SDS011;26216;53.724;9.898;2023-11-22T13:20:27;2.28;;;1.30;;
40515;SDS011;26216;53.724;9.898;2023-11-22T13:22:53;2.28;;;1.38;;
40515;SDS011;26216;53.724;9.898;2023-11-22T13:25:21;2.30;;;1.20;;
40515;SDS011;26216;53.724;9.898;2023-11-22T13:27:49;1.80;;;1.30;;
40515;SDS011;26216;53.724;9.898;2023-11-22T13:30:17;2.45;;;1.60;;
40515;SDS011;26216;53.724;9.898;2023-11-22T13:32:48;2.42;;;1.45;;
40515;SDS011;26216;53.724;9.898;2023-11-22T13:35:15;1.70;;;1.05;;
40515;SDS011;26216;53.724;9.898;2023-11-22T13:37:42;2.58;;;1.23;;
40515;SDS011;26216;53.724;9.898;2023-11-22T13:40:10;1.95;;;1.25;;
40515;SDS011;26216;53.724;9.898;2023-11-22T13:42:43;2.45;;;1.23;;
40515;SDS011;26216;53.724;9.898;2023-11-22T13:45:14;1.95;;;1.08;;
40515;SDS011;26216;53.724;9.898;2023-11-22T13:50:15;2.33;;;1.30;;
40515;SDS011;26216;53.724;9.898;2023-11-22T13:52:47;1.75;;;1.20;;
40515;SDS011;26216;53.724;9.898;2023-11-22T13:55:14;2.40;;;1.48;;
40515;SDS011;26216;53.724;9.898;2023-11-22T13:57:41;2.00;;;1.42;;
40515;SDS011;26216;53.724;9.898;2023-11-22T14:00:08;1.80;;;1.27;;
40515;SDS011;26216;53.724;9.898;2023-11-22T14:02:38;2.13;;;1.30;;
40515;SDS011;26216;53.724;9.898;2023-11-22T14:05:06;1.60;;;1.05;;
40515;SDS011;26216;53.724;9.898;2023-11-22T14:07:33;1.90;;;1.23;;
40515;SDS011;26216;53.724;9.898;2023-11-22T14:10:01;1.88;;;1.23;;
40515;SDS011;26216;53.724;9.898;2023-11-22T14:12:31;3.13;;;1.20;;
40515;SDS011;26216;53.724;9.898;2023-11-22T14:14:58;1.92;;;1.40;;
40515;SDS011;26216;53.724;9.898;2023-11-22T14:17:24;1.55;;;1.17;;
40515;SDS011;26216;53.724;9.898;2023-11-22T14:19:51;1.65;;;1.20;;
40515;SDS011;26216;53.724;9.898;2023-11-22T14:22:21;1.92;;;1.05;;
40515;SDS011;26216;53.724;9.898;2023-11-22T14:24:47;2.22;;;1.30;;
40515;SDS011;26216;53.724;9.898;2023-11-22T14:27:19;2.28;;;1.15;;
40515;SDS011;26216;53.724;9.898;2023-11-22T14:29:46;2.10;;;1.33;;
40515;SDS011;26216;53.724;9.898;2023-11-22T14:32:19;1.83;;;1.00;;
40515;SDS011;26216;53.724;9.898;2023-11-22T14:34:48;2.00;;;1.00;;
40515;SDS011;26216;53.724;9.898;2023-11-22T14:37:14;2.25;;;1.20;;
40515;SDS011;26216;53.724;9.898;2023-11-22T14:39:40;1.75;;;1.15;;
40515;SDS011;26216;53.724;9.898;2023-11-22T14:42:07;2.53;;;1.15;;
40515;SDS011;26216;53.724;9.898;2023-11-22T14:44:33;1.92;;;1.08;;
40515;SDS011;26216;53.724;9.898;2023-11-22T14:47:00;2.17;;;1.30;;
40515;SDS011;26216;53.724;9.898;2023-11-22T14:49:37;1.60;;;1.05;;
40515;SDS011;26216;53.724;9.898;2023-11-22T14:52:04;1.48;;;1.00;;
40515;SDS011;26216;53.724;9.898;2023-11-22T14:54:30;1.83;;;1.10;;
40515;SDS011;26216;53.724;9.898;2023-11-22T14:56:56;1.92;;;1.20;;